createdAt,value
2022-09-15T00:01:01.189Z,97151.54
2022-09-15T00:03:28.844Z,97151.73
2022-09-15T00:05:56.102Z,97146.67
2022-09-15T00:08:23.368Z,97140.65
2022-09-15T00:10:56.568Z,97153.56
2022-09-15T00:13:23.999Z,97147.33
2022-09-15T00:15:51.156Z,97151.07
2022-09-15T00:18:18.353Z,97162.84
2022-09-15T00:20:47.908Z,97149.17
2022-09-15T00:23:15.853Z,97150.06
2022-09-15T00:25:48.349Z,97140.30
2022-09-15T00:28:17.514Z,97152.23
2022-09-15T00:30:46.011Z,97142.23
2022-09-15T00:33:13.898Z,97139.92
2022-09-15T00:35:41.661Z,97135.58
2022-09-15T00:38:09.425Z,97129.16
2022-09-15T00:40:47.224Z,97119.52
2022-09-15T00:43:15.191Z,97106.65
2022-09-15T00:45:42.166Z,97115.84
2022-09-15T00:48:10.901Z,97121.98
2022-09-15T00:50:38.079Z,97123.11
2022-09-15T00:53:06.170Z,97125.17
2022-09-15T00:55:42.322Z,97119.90
2022-09-15T00:58:16.245Z,97117.23
2022-09-15T01:00:48.108Z,97115.35
2022-09-15T01:03:15.911Z,97109.81
2022-09-15T01:05:46.168Z,97104.23
2022-09-15T01:08:34.317Z,97104.38
2022-09-15T01:11:01.560Z,97085.29
2022-09-15T01:13:30.064Z,97094.08
2022-09-15T01:16:38.781Z,97096.05
2022-09-15T01:19:32.472Z,97086.71
2022-09-15T01:22:08.497Z,97083.85
2022-09-15T01:25:04.951Z,97083.70
2022-09-15T01:27:58.331Z,97092.78
2022-09-15T01:30:25.444Z,97085.41
2022-09-15T01:33:11.947Z,97068.98
2022-09-15T01:36:10.221Z,97060.36
2022-09-15T01:38:50.921Z,97063.90
2022-09-15T01:41:25.103Z,97060.64
2022-09-15T01:44:05.872Z,97055.00
2022-09-15T01:46:49.713Z,97053.75
2022-09-15T01:49:21.889Z,97041.19
2022-09-15T01:51:49.648Z,97041.39
2022-09-15T01:54:16.884Z,97035.96
2022-09-15T01:56:44.150Z,97035.92
2022-09-15T01:59:11.913Z,97031.11
2022-09-15T02:01:45.050Z,97028.98
2022-09-15T02:04:39.700Z,97023.75
2022-09-15T02:07:13.723Z,97021.98
2022-09-15T02:09:44.792Z,97029.48
2022-09-15T02:12:12.896Z,97018.59
2022-09-15T02:15:03.563Z,97012.52
2022-09-15T02:17:31.595Z,97021.14
2022-09-15T02:20:10.620Z,97026.64
2022-09-15T02:22:38.285Z,97025.29
2022-09-15T02:25:13.025Z,97029.63
2022-09-15T02:27:44.417Z,97020.35
2022-09-15T02:30:13.554Z,97018.67
2022-09-15T02:32:46.924Z,97019.86
2022-09-15T02:35:13.899Z,97019.76
2022-09-15T02:37:40.945Z,97023.58
2022-09-15T02:40:08.461Z,97019.77
2022-09-15T02:42:39.359Z,97015.52
2022-09-15T02:45:07.104Z,97005.86
2022-09-15T02:47:34.111Z,97009.06
2022-09-15T02:50:01.433Z,97010.01
2022-09-15T02:52:28.600Z,97002.77
2022-09-15T02:54:55.732Z,96997.23
2022-09-15T02:57:22.787Z,96992.71
2022-09-15T03:00:29.621Z,96989.67
2022-09-15T03:03:05.695Z,96995.58
2022-09-15T03:09:24.422Z,96988.02
2022-09-15T03:15:13.125Z,96981.44
2022-09-15T03:17:50.106Z,96975.63
2022-09-15T03:20:21.670Z,96977.96
2022-09-15T03:22:51.200Z,96971.98
2022-09-15T03:25:18.721Z,96971.42
2022-09-15T03:27:45.810Z,96981.68
2022-09-15T03:30:13.155Z,96975.23
2022-09-15T03:32:40.517Z,96975.05
2022-09-15T03:35:08.140Z,96976.05
2022-09-15T03:37:35.188Z,96974.20
2022-09-15T03:40:04.054Z,96969.40
2022-09-15T03:42:31.234Z,96968.42
2022-09-15T03:44:58.273Z,96963.73
2022-09-15T03:47:25.323Z,96967.13
2022-09-15T03:49:52.368Z,96970.58
2022-09-15T03:52:19.312Z,96961.56
2022-09-15T03:54:48.542Z,96957.00
2022-09-15T03:57:15.558Z,96945.58
2022-09-15T03:59:42.605Z,96945.83
2022-09-15T04:02:09.678Z,96954.30
2022-09-15T04:04:37.112Z,96958.93
2022-09-15T04:07:04.157Z,96966.94
2022-09-15T04:09:31.652Z,96961.41
2022-09-15T04:11:58.762Z,96962.52
2022-09-15T04:14:25.727Z,96953.54
2022-09-15T04:16:52.754Z,96952.95
2022-09-15T04:19:19.805Z,96940.94
2022-09-15T04:21:47.771Z,96939.77
2022-09-15T04:24:14.923Z,96929.75
2022-09-15T04:26:41.970Z,96932.34
2022-09-15T04:29:13.943Z,96936.80
2022-09-15T04:31:41.006Z,96950.27
2022-09-15T04:34:08.026Z,96946.78
2022-09-15T04:36:34.950Z,96941.45
2022-09-15T04:39:02.326Z,96945.48
2022-09-15T04:41:29.406Z,96945.60
2022-09-15T04:43:56.526Z,96952.11
2022-09-15T04:46:23.675Z,96951.22
2022-09-15T04:48:50.824Z,96953.97
2022-09-15T04:51:19.522Z,96957.38
2022-09-15T04:53:46.673Z,96952.84
2022-09-15T04:56:15.755Z,96949.77
2022-09-15T04:58:50.684Z,96953.55
2022-09-15T05:01:22.898Z,96957.54
2022-09-15T05:05:06.221Z,96970.50
2022-09-15T05:07:33.342Z,96977.11
2022-09-15T05:10:00.386Z,96974.70
2022-09-15T05:12:28.151Z,96967.52
2022-09-15T05:14:55.117Z,96961.19
2022-09-15T05:17:25.083Z,96959.81
2022-09-15T05:19:53.796Z,96962.72
2022-09-15T05:22:20.867Z,96967.13
2022-09-15T05:24:48.102Z,96958.39
2022-09-15T05:27:17.706Z,96948.67
2022-09-15T05:29:44.859Z,96947.70
2022-09-15T05:32:11.908Z,96942.20
2022-09-15T05:34:38.947Z,96939.61
2022-09-15T05:37:06.098Z,96937.77
2022-09-15T05:39:33.653Z,96937.77
2022-09-15T05:42:00.600Z,96930.61
2022-09-15T05:44:27.570Z,96931.52
2022-09-15T05:46:54.648Z,96926.90
2022-09-15T05:49:21.691Z,96917.70
2022-09-15T05:51:48.690Z,96917.02
2022-09-15T05:54:15.962Z,96906.92
2022-09-15T05:56:43.091Z,96903.33
2022-09-15T05:59:10.140Z,96900.88
2022-09-15T06:01:37.241Z,96890.01
2022-09-15T06:04:04.342Z,96891.56
2022-09-15T06:06:31.789Z,96898.59
2022-09-15T06:09:00.413Z,96901.24
2022-09-15T06:11:29.587Z,96898.73
2022-09-15T06:13:59.053Z,96906.13
2022-09-15T06:16:26.905Z,96919.98
2022-09-15T06:18:54.257Z,96927.19
2022-09-15T06:21:23.393Z,96927.82
2022-09-15T06:23:55.190Z,96923.86
2022-09-15T06:26:22.639Z,96925.25
2022-09-15T06:28:55.903Z,96931.09
2022-09-15T06:31:23.401Z,96922.95
2022-09-15T06:33:53.315Z,96918.90
2022-09-15T06:36:21.648Z,96916.61
2022-09-15T06:38:48.715Z,96916.93
2022-09-15T06:41:16.151Z,96900.27
2022-09-15T06:43:43.612Z,96877.89
2022-09-15T06:46:12.437Z,96867.39
2022-09-15T06:48:40.170Z,96869.91
2022-09-15T06:51:08.435Z,96879.85
2022-09-15T06:53:42.507Z,96882.16
2022-09-15T06:56:21.070Z,96882.48
2022-09-15T06:58:51.960Z,96886.46
2022-09-15T07:01:28.351Z,96896.10
2022-09-15T07:04:01.142Z,96900.23
2022-09-15T07:06:29.430Z,96904.52
2022-09-15T07:08:57.397Z,96897.50
2022-09-15T07:11:30.600Z,96892.01
2022-09-15T07:13:58.659Z,96884.81
2022-09-15T07:16:26.266Z,96893.40
2022-09-15T07:18:55.110Z,96906.22
2022-09-15T07:21:22.257Z,96912.65
2022-09-15T07:23:49.522Z,96911.16
2022-09-15T07:26:24.852Z,96909.17
2022-09-15T07:29:11.380Z,96898.27
2022-09-15T07:31:39.087Z,96902.16
2022-09-15T07:34:06.600Z,96894.12
2022-09-15T07:36:33.934Z,96909.39
2022-09-15T07:39:06.713Z,96911.77
2022-09-15T07:41:33.865Z,96905.41
2022-09-15T07:44:01.124Z,96907.73
2022-09-15T07:46:30.718Z,96901.74
2022-09-15T07:48:57.974Z,96903.41
2022-09-15T07:51:25.541Z,96904.23
2022-09-15T07:53:52.614Z,96905.62
2022-09-15T07:56:19.728Z,96905.19
2022-09-15T07:58:47.593Z,96901.42
2022-09-15T08:01:15.215Z,96896.93
2022-09-15T08:03:43.254Z,96893.27
2022-09-15T08:06:10.785Z,96903.95
2022-09-15T08:08:41.212Z,96917.65
2022-09-15T08:11:09.482Z,96924.23
2022-09-15T08:13:36.847Z,96935.61
2022-09-15T08:16:12.145Z,96934.33
2022-09-15T08:18:40.028Z,96923.93
2022-09-15T08:21:08.018Z,96928.67
2022-09-15T08:23:35.274Z,96937.71
2022-09-15T08:26:02.931Z,96934.94
2022-09-15T08:28:32.669Z,96927.86
2022-09-15T08:31:01.409Z,96932.02
2022-09-15T08:33:28.991Z,96937.48
2022-09-15T08:36:03.434Z,96937.23
2022-09-15T08:38:30.665Z,96942.62
2022-09-15T08:41:00.625Z,96949.09
2022-09-15T08:43:35.817Z,96950.70
2022-09-15T08:46:07.837Z,96952.50
2022-09-15T08:48:39.919Z,96946.05
2022-09-15T08:51:10.993Z,96944.31
2022-09-15T08:53:41.354Z,96941.99
2022-09-15T08:56:18.195Z,96936.58
2022-09-15T08:58:46.268Z,96935.13
2022-09-15T09:01:21.304Z,96934.48
2022-09-15T09:03:58.480Z,96935.36
2022-09-15T09:06:35.359Z,96935.33
2022-09-15T09:09:17.866Z,96932.74
2022-09-15T09:12:06.314Z,96928.33
2022-09-15T09:14:41.863Z,96929.34
2022-09-15T09:17:42.422Z,96926.91
2022-09-15T09:20:33.709Z,96915.15
2022-09-15T09:23:02.953Z,96913.30
2022-09-15T09:25:30.083Z,96917.46
2022-09-15T09:27:58.536Z,96923.38
2022-09-15T09:30:26.219Z,96921.95
2022-09-15T09:32:56.319Z,96923.40
2022-09-15T09:35:34.913Z,96915.37
2022-09-15T09:38:02.806Z,96912.09
2022-09-15T09:40:32.996Z,96904.30
2022-09-15T09:43:02.841Z,96903.33
2022-09-15T09:45:29.989Z,96909.64
2022-09-15T09:48:02.009Z,96913.78
2022-09-15T09:50:34.928Z,96914.31
2022-09-15T09:53:27.588Z,96919.19
2022-09-15T09:56:13.371Z,96918.48
2022-09-15T09:58:40.518Z,96917.98
2022-09-15T10:01:21.097Z,96918.90
2022-09-15T10:04:19.770Z,96918.30
2022-09-15T10:06:53.787Z,96919.45
2022-09-15T10:09:33.505Z,96920.71
2022-09-15T10:12:06.421Z,96909.40
2022-09-15T10:14:48.760Z,96905.02
2022-09-15T10:17:25.283Z,96907.69
2022-09-15T10:19:56.509Z,96907.70
2022-09-15T10:22:32.755Z,96905.66
2022-09-15T10:25:01.383Z,96902.59
2022-09-15T10:27:28.387Z,96900.78
2022-09-15T10:29:55.986Z,96899.29
2022-09-15T10:32:25.454Z,96898.31
2022-09-15T10:35:01.149Z,96907.67
2022-09-15T10:37:40.068Z,96910.73
2022-09-15T10:40:18.054Z,96911.74
2022-09-15T10:42:53.079Z,96917.40
2022-09-15T10:45:26.448Z,96914.64
2022-09-15T10:48:19.045Z,96914.09
2022-09-15T10:50:56.127Z,96908.06
2022-09-15T10:53:47.157Z,96913.71
2022-09-15T10:56:30.062Z,96915.22
2022-09-15T10:59:01.212Z,96912.14
2022-09-15T11:01:28.375Z,96903.88
2022-09-15T11:04:08.810Z,96903.73
2022-09-15T11:06:59.942Z,96897.48
2022-09-15T11:09:42.637Z,96895.05
2022-09-15T11:12:42.949Z,96891.05
2022-09-15T11:15:15.439Z,96886.55
2022-09-15T11:18:09.984Z,96887.67
2022-09-15T11:20:50.095Z,96890.19
2022-09-15T11:23:19.105Z,96889.16
2022-09-15T11:25:49.096Z,96881.83
2022-09-15T11:28:25.940Z,96885.42
2022-09-15T11:31:18.007Z,96885.61
2022-09-15T11:33:50.042Z,96893.83
2022-09-15T11:36:46.094Z,96890.91
2022-09-15T11:39:24.407Z,96890.77
2022-09-15T11:42:04.978Z,96881.13
2022-09-15T11:44:34.375Z,96877.28
2022-09-15T11:47:20.470Z,96870.72
2022-09-15T11:50:18.949Z,96860.64
2022-09-15T11:53:25.937Z,96851.96
2022-09-15T11:56:00.664Z,96849.13
2022-09-15T11:58:35.586Z,96854.55
2022-09-15T12:01:11.889Z,96855.17
2022-09-15T12:03:47.747Z,96858.95
2022-09-15T12:06:17.888Z,96859.54
2022-09-15T12:08:53.401Z,96860.04
2022-09-15T12:11:22.631Z,96859.08
2022-09-15T12:13:49.856Z,96862.23
2022-09-15T12:16:17.167Z,96859.86
2022-09-15T12:19:17.137Z,96859.42
2022-09-15T12:21:50.328Z,96862.58
2022-09-15T12:24:44.023Z,96868.28
2022-09-15T12:27:14.558Z,96871.57
2022-09-15T12:29:46.996Z,96874.16
2022-09-15T12:32:27.884Z,96884.55
2022-09-15T12:35:16.719Z,96885.78
2022-09-15T12:37:46.947Z,96890.33
2022-09-15T12:40:26.682Z,96892.88
2022-09-15T12:42:54.049Z,96890.84
2022-09-15T12:45:31.176Z,96893.86
2022-09-15T12:48:10.091Z,96904.23
2022-09-15T12:50:41.913Z,96908.20
2022-09-15T12:53:23.059Z,96896.17
2022-09-15T12:56:10.600Z,96895.80
2022-09-15T12:58:50.183Z,96887.29
2022-09-15T13:01:23.872Z,96889.39
2022-09-15T13:03:55.452Z,96898.59
2022-09-15T13:06:29.849Z,96887.94
2022-09-15T13:09:05.973Z,96880.69
2022-09-15T13:14:42.128Z,96890.19
2022-09-15T13:17:24.237Z,96885.65
2022-09-15T13:19:54.871Z,96881.95
2022-09-15T13:22:23.805Z,96885.27
2022-09-15T13:25:02.126Z,96879.80
2022-09-15T13:27:54.556Z,96876.48
2022-09-15T13:30:21.662Z,96878.86
2022-09-15T13:32:53.667Z,96881.39
2022-09-15T13:35:28.908Z,96883.98
2022-09-15T13:38:25.225Z,96879.62
2022-09-15T13:41:26.087Z,96882.23
2022-09-15T13:44:05.414Z,96884.89
2022-09-15T13:46:45.467Z,96884.16
2022-09-15T13:49:35.967Z,96883.16
2022-09-15T13:52:14.482Z,96888.03
2022-09-15T13:55:12.861Z,96887.08
2022-09-15T14:00:43.723Z,96898.36
2022-09-15T14:03:13.162Z,96896.52
2022-09-15T14:05:40.884Z,96894.57
2022-09-15T14:08:16.125Z,96891.11
2022-09-15T14:11:08.747Z,96891.91
2022-09-15T14:13:36.946Z,96896.50
2022-09-15T14:16:19.286Z,96905.11
2022-09-15T14:18:46.574Z,96902.23
2022-09-15T14:21:19.321Z,96905.48
2022-09-15T14:23:47.866Z,96901.77
2022-09-15T14:26:15.958Z,96902.39
2022-09-15T14:28:56.822Z,96903.86
2022-09-15T14:31:34.966Z,96904.76
2022-09-15T14:34:03.103Z,96906.20
2022-09-15T14:36:32.077Z,96901.61
2022-09-15T14:39:08.822Z,96891.42
2022-09-15T14:45:55.553Z,96923.63
2022-09-15T14:49:28.093Z,96915.73
2022-09-15T14:52:20.533Z,96911.23
2022-09-15T14:54:47.853Z,96914.45
2022-09-15T14:57:15.120Z,96912.79
2022-09-15T14:59:45.860Z,96925.25
2022-09-15T15:02:35.079Z,96921.98
2022-09-15T15:05:11.370Z,96925.13
2022-09-15T15:07:38.788Z,96921.33
2022-09-15T15:10:26.894Z,96917.92
2022-09-15T15:13:00.629Z,96905.20
2022-09-15T15:15:28.712Z,96904.23
2022-09-15T15:17:56.011Z,96900.30
2022-09-15T15:20:27.883Z,96906.11
2022-09-15T15:23:23.793Z,96907.16
2022-09-15T15:25:51.553Z,96903.50
2022-09-15T15:28:34.061Z,96904.94
2022-09-15T15:31:16.654Z,96902.96
2022-09-15T15:34:05.446Z,96901.95
2022-09-15T15:36:35.958Z,96898.67
2022-09-15T15:39:05.731Z,96886.14
2022-09-15T15:41:40.983Z,96885.70
2022-09-15T15:44:25.978Z,96883.45
2022-09-15T15:47:00.500Z,96887.98
2022-09-15T15:49:29.655Z,96883.86
2022-09-15T15:52:00.630Z,96876.56
2022-09-15T15:54:28.308Z,96877.98
2022-09-15T15:56:55.543Z,96886.28
2022-09-15T15:59:22.694Z,96883.89
2022-09-15T16:01:52.087Z,96886.09
2022-09-15T16:04:20.067Z,96886.94
2022-09-15T16:06:47.212Z,96889.63
2022-09-15T16:09:14.773Z,96888.96
2022-09-15T16:11:43.302Z,96881.42
2022-09-15T16:14:16.346Z,96878.75
2022-09-15T16:16:44.910Z,96886.15
2022-09-15T16:19:12.715Z,96898.73
2022-09-15T16:21:41.687Z,96894.11
2022-09-15T16:24:14.058Z,96889.88
2022-09-15T16:26:41.203Z,96896.98
2022-09-15T16:29:08.150Z,96907.10
2022-09-15T16:31:35.263Z,96912.39
2022-09-15T16:34:02.652Z,96912.70
2022-09-15T16:36:29.906Z,96920.87
2022-09-15T16:38:57.258Z,96921.17
2022-09-15T16:41:25.753Z,96922.44
2022-09-15T16:43:58.640Z,96919.23
2022-09-15T16:46:25.711Z,96916.57
2022-09-15T16:48:52.842Z,96912.91
2022-09-15T16:51:31.380Z,96906.21
2022-09-15T16:53:59.245Z,96896.27
2022-09-15T16:56:27.196Z,96898.34
2022-09-15T16:58:59.018Z,96897.30
2022-09-15T17:01:29.969Z,96897.63
2022-09-15T17:03:59.371Z,96898.23
2022-09-15T17:06:26.420Z,96897.20
2022-09-15T17:08:53.765Z,96894.16
2022-09-15T17:11:22.338Z,96895.10
2022-09-15T17:13:49.639Z,96899.84
2022-09-15T17:16:19.548Z,96907.17
2022-09-15T17:18:47.083Z,96908.98
2022-09-15T17:22:48.544Z,96908.18
2022-09-15T17:25:21.837Z,96907.61
2022-09-15T17:27:49.616Z,96912.08
2022-09-15T17:30:17.264Z,96916.89
2022-09-15T17:32:44.274Z,96917.66
2022-09-15T17:35:27.237Z,96922.31
2022-09-15T17:37:54.279Z,96915.52
2022-09-15T17:40:21.442Z,96922.02
2022-09-15T17:42:49.396Z,96924.47
2022-09-15T17:45:18.413Z,96923.76
2022-09-15T17:47:45.643Z,96926.56
2022-09-15T17:50:12.704Z,96935.08
2022-09-15T17:52:39.737Z,96931.11
2022-09-15T17:55:23.708Z,96928.01
2022-09-15T17:57:50.829Z,96940.05
2022-09-15T18:00:18.630Z,96938.99
2022-09-15T18:02:57.850Z,96936.16
2022-09-15T18:05:29.089Z,96935.41
2022-09-15T18:07:57.452Z,96938.91
2022-09-15T18:10:30.844Z,96941.64
2022-09-15T18:12:57.891Z,96936.29
2022-09-15T18:15:29.862Z,96931.61
2022-09-15T18:18:02.165Z,96937.57
2022-09-15T18:20:33.984Z,96936.14
2022-09-15T18:23:00.960Z,96937.03
2022-09-15T18:25:31.029Z,96942.27
2022-09-15T18:27:58.811Z,96934.65
2022-09-15T18:30:27.804Z,96929.75
2022-09-15T18:32:54.955Z,96929.82
2022-09-15T18:35:24.562Z,96926.13
2022-09-15T18:38:01.058Z,96925.91
2022-09-15T18:40:28.293Z,96926.36
2022-09-15T18:42:56.865Z,96912.45
2022-09-15T18:45:23.953Z,96920.60
2022-09-15T18:47:56.088Z,96919.86
2022-09-15T18:50:23.953Z,96922.15
2022-09-15T18:52:54.470Z,96915.00
2022-09-15T18:55:23.776Z,96908.58
2022-09-15T18:57:51.075Z,96901.78
2022-09-15T19:00:20.131Z,96892.65
2022-09-15T19:02:48.320Z,96883.09
2022-09-15T19:05:16.406Z,96879.11
2022-09-15T19:07:44.347Z,96880.01
2022-09-15T19:10:12.497Z,96876.86
2022-09-15T19:12:39.662Z,96869.30
2022-09-15T19:15:10.910Z,96863.67
2022-09-15T19:17:39.080Z,96861.14
2022-09-15T19:20:07.609Z,96870.44
2022-09-15T19:22:37.069Z,96870.93
2022-09-15T19:25:05.902Z,96870.42
2022-09-15T19:27:33.104Z,96875.02
2022-09-15T19:30:00.360Z,96872.73
2022-09-15T19:32:27.509Z,96866.46
2022-09-15T19:34:55.612Z,96869.88
2022-09-15T19:37:28.707Z,96873.09
2022-09-15T19:39:59.557Z,96872.29
2022-09-15T19:42:26.858Z,96865.18
2022-09-15T19:44:54.560Z,96864.66
2022-09-15T19:47:21.876Z,96854.88
2022-09-15T19:49:48.967Z,96854.48
2022-09-15T19:52:16.173Z,96865.64
2022-09-15T19:54:43.330Z,96872.68
2022-09-15T19:57:10.678Z,96870.84
2022-09-15T19:59:37.667Z,96878.91
2022-09-15T20:02:04.814Z,96876.56
2022-09-15T20:07:16.945Z,96874.27
2022-09-15T20:09:44.362Z,96875.69
2022-09-15T20:12:11.471Z,96883.11
2022-09-15T20:14:38.656Z,96879.67
2022-09-15T20:17:05.719Z,96870.56
2022-09-15T20:19:32.947Z,96868.31
2022-09-15T20:21:59.995Z,96864.86
2022-09-15T20:24:27.040Z,96862.57
2022-09-15T20:26:54.703Z,96856.98
2022-09-15T20:29:21.747Z,96850.29
2022-09-15T20:31:48.838Z,96846.34
2022-09-15T20:34:18.503Z,96848.01
2022-09-15T20:36:45.666Z,96849.96
2022-09-15T20:39:14.651Z,96846.69
2022-09-15T20:41:45.211Z,96845.16
2022-09-15T20:44:12.655Z,96838.85
2022-09-15T20:46:39.782Z,96837.66
2022-09-15T20:49:07.051Z,96834.41
2022-09-15T20:51:34.393Z,96835.77
2022-09-15T20:54:02.373Z,96836.44
2022-09-15T20:56:30.125Z,96836.88
2022-09-15T20:59:00.080Z,96835.41
2022-09-15T21:01:29.311Z,96834.55
2022-09-15T21:03:56.587Z,96835.23
2022-09-15T21:06:25.958Z,96831.98
2022-09-15T21:08:53.741Z,96830.03
2022-09-15T21:11:21.423Z,96832.46
2022-09-15T21:13:49.591Z,96839.05
2022-09-15T21:16:20.320Z,96840.23
2022-09-15T21:18:49.877Z,96837.19
2022-09-15T21:21:18.763Z,96828.41
2022-09-15T21:23:47.360Z,96831.94
2022-09-15T21:26:16.089Z,96836.75
2022-09-15T21:28:43.855Z,96844.23
2022-09-15T21:31:16.129Z,96835.28
2022-09-15T21:33:43.788Z,96832.06
2022-09-15T21:36:12.613Z,96833.27
2022-09-15T21:38:40.675Z,96832.40
2022-09-15T21:41:09.411Z,96844.36
2022-09-15T21:43:37.607Z,96843.76
2022-09-15T21:46:07.711Z,96852.50
2022-09-15T21:48:35.216Z,96853.69
2022-09-15T21:51:02.946Z,96853.52
2022-09-15T21:53:29.995Z,96845.36
2022-09-15T21:55:59.821Z,96846.94
2022-09-15T21:58:27.697Z,96839.17
2022-09-15T22:00:54.763Z,96837.14
2022-09-15T22:03:21.812Z,96840.51
2022-09-15T22:05:50.146Z,96840.80
2022-09-15T22:08:17.124Z,96839.48
2022-09-15T22:10:44.650Z,96838.10
2022-09-15T22:13:11.730Z,96837.65
2022-09-15T22:15:38.851Z,96835.36
2022-09-15T22:18:06.928Z,96828.77
2022-09-15T22:20:34.073Z,96836.70
2022-09-15T22:23:01.630Z,96844.92
2022-09-15T22:25:29.331Z,96844.73
2022-09-15T22:27:56.438Z,96839.93
2022-09-15T22:30:23.493Z,96834.23
2022-09-15T22:32:50.538Z,96837.57
2022-09-15T22:35:17.598Z,96841.49
2022-09-15T22:37:44.735Z,96843.36
2022-09-15T22:40:11.821Z,96835.75
2022-09-15T22:42:39.133Z,96826.42
2022-09-15T22:45:07.622Z,96822.98
2022-09-15T22:47:34.594Z,96824.55
2022-09-15T22:50:01.610Z,96822.77
2022-09-15T22:52:28.653Z,96825.10
2022-09-15T22:54:55.905Z,96819.31
2022-09-15T22:57:22.953Z,96818.86
2022-09-15T22:59:50.101Z,96827.88
2022-09-15T23:02:17.199Z,96832.06
2022-09-15T23:04:44.303Z,96830.70
2022-09-15T23:07:11.387Z,96830.88
2022-09-15T23:09:38.417Z,96830.36
2022-09-15T23:12:07.102Z,96824.73
2022-09-15T23:14:34.125Z,96821.65
2022-09-15T23:17:01.194Z,96821.16
2022-09-15T23:19:28.223Z,96814.96
2022-09-15T23:21:55.187Z,96812.52
2022-09-15T23:24:22.724Z,96804.61
2022-09-15T23:26:49.792Z,96800.27
2022-09-15T23:29:16.927Z,96799.53
2022-09-15T23:31:44.022Z,96803.58
2022-09-15T23:34:11.119Z,96806.26
2022-09-15T23:36:38.168Z,96807.84
2022-09-15T23:39:05.316Z,96801.40
2022-09-15T23:41:32.260Z,96805.27
2022-09-15T23:44:00.227Z,96801.21
2022-09-15T23:46:27.279Z,96797.69
2022-09-15T23:48:54.735Z,96798.36
2022-09-15T23:51:21.772Z,96805.75
2022-09-15T23:53:48.872Z,96806.00
2022-09-15T23:56:15.874Z,96798.25
2022-09-15T23:58:43.126Z,96803.61
